METAR AND TAF INFORMATION
METAR FOR UASP
ADDS - METARS form results

(0414 UTC 26 August 2019)
Data provider http://aviationweather.gov/metar/data/
 
METAR text: UASP 260400Z 16007MPS CAVOK 26/13 Q1013 R21/0///70 NOSIG RMK QFE749/0999
Conditions at: UASP (PAVLODAR , KZ) observed 0400 UTC 26 August 2019
Temperature: 26.0°C (79°F)
Dewpoint: 13.0°C (55°F) [RH = 45%]
Pressure (altimeter): 29.91 inches Hg (1013.0 mb)
Winds: from the SSE (160 degrees) at 16 MPH (14 knots; 7.2 m/s)
Visibility: 6 or more miles (10+ km)
Ceiling: ceiling and visibility are OK
Clouds: unknown
Weather: no significant weather observed at this time

METAR text: UASP 260330Z 16007MPS CAVOK 24/13 Q1014 R21/0///70 NOSIG RMK QFE749/0999
Conditions at: UASP (PAVLODAR , KZ) observed 0330 UTC 26 August 2019
Temperature: 24.0°C (75°F)
Dewpoint: 13.0°C (55°F) [RH = 50%]
Pressure (altimeter): 29.94 inches Hg (1014.0 mb)
Winds: from the SSE (160 degrees) at 16 MPH (14 knots; 7.2 m/s)
Visibility: 6 or more miles (10+ km)
Ceiling: ceiling and visibility are OK
Clouds: unknown
Weather: no significant weather observed at this time

Forecast for: UASP (PAVLODAR , KZ)
Text: TAF UASP 260200Z 2603/2612 14006MPS 9999 SCT030
Forecast period: 0300 to 1200 UTC 26 August 2019
Forecast type: FROM: standard forecast or significant change
Winds: from the SE (140 degrees) at 14 MPH (12 knots; 6.2 m/s)
Visibility: 6 or more miles 10+ km)
Ceiling: at least 12,000 feet AGL
Clouds: scattered clouds at 3000 feet AGL
Weather: no significant weather forecast for this period
Text: TEMPO 2603/2606 16012MPS 5000 FU BKN011
Forecast period: 0300 to 0600 UTC 26 August 2019
Forecast type: TEMPORARY: The following changes expected for less than half the time period
Winds: from the SSE (160 degrees) at 26 MPH (23 knots; 11.8 m/s)
Visibility: 3 miles (5 km)
Ceiling: 1100 feet AGL
Clouds: broken clouds at 1100 feet AGL
Weather: FU  (smoke)
Text: TEMPO 2606/2611 VRB15MPS 5000 -TSRA BKN020CB
Forecast period: 0600 to 1100 UTC 26 August 2019
Forecast type: TEMPORARY: The following changes expected for less than half the time period
Winds: variable direction winds at 33 MPH (29 knots; 14.9 m/s)
Visibility: 3 miles (5 km)
Ceiling: 2000 feet AGL
Clouds: broken clouds at 2000 feet AGL
Weather: -TSRA  (light rain associated with thunderstorm(s))

 AIRPORT MAP

 RUNWAY INFORMATION

 AIRPORT FREQUENCIES
Type TWR Name TWR Frequency 119.8 MHZ

 AIRPORT NEAR NAVIGATION AIDS
Type NDB Name Pavlodar Frequency 440 KHZ
Type NDB Name Pavlodar Frequency 440 KHZ



2018 Air Astana Virtual Airline